Flight Track Log - Related Links

Times and Time Zones

All times are in EDT time to prevent confusion due to time zone crossing. See the CTL13 flight status page for this flight to view local times or setup timezone preferences in your user account.

Time Position Orientation Groundspeed Altitude Reporting Facility
EDT Latitude Longitude Course Direction KTS MPH feet Rate Location/Type
Thu 06:37:27 PM 41.5253 -81.6675 248° West 110 127 1,400  Level Cleveland Center
Thu 06:37:52 PM 41.5317 -81.6567 52° Northeast 109 125 1,900 1,129 Climbing Cleveland Center
Thu 06:38:52 PM 41.5342 -81.6206 85° East 125 144 3,000 1,041 Climbing Cleveland Center
Thu 06:39:53 PM 41.5008 -81.6144 172° South 120 138 4,000 984 Climbing Cleveland Center
Thu 06:41:00 PM 41.4633 -81.6056 170° South 126 145 5,100 945 Climbing Cleveland Center
Thu 06:42:00 PM 41.4281 -81.6022 176° South 122 140 6,000 793 Climbing Cleveland Center
Thu 06:43:00 PM 41.3948 -81.9836 248° West  Level FlightAware Approximate
Thu 06:43:01 PM 41.3925 -81.5989 176° South 126 145 6,700  Level Cleveland Center
Thu 06:44:01 PM 41.3653 -81.6261 217° Southwest 149 171 7,300 545 Climbing Cleveland Center
Thu 06:45:02 PM 41.3503 -81.6783 249° West 153 176 7,800 393 Climbing Cleveland Center
Thu 06:46:03 PM 41.3331 -81.7308 246° West 153 176 8,100 198 Climbing Cleveland Center
Thu 06:47:03 PM 41.3136 -81.7856 245° Southwest 170 196 8,200 198 Climbing Cleveland Center
Thu 06:48:04 PM 41.2944 -81.8406 245° Southwest 161 185 8,500 470 Climbing Cleveland Center
Thu 06:48:58 PM 41.2792 -81.8872 246° West 149 171 9,100 600 Climbing Cleveland Center
Thu 06:49:24 PM 41.2728 -81.9064 246° West 147 169 9,300 419 Climbing Cleveland Center
Thu 06:50:24 PM 41.2556 -81.9558 245° Southwest 153 176 9,700 400 Climbing Cleveland Center
Thu 06:51:24 PM 41.2403 -82.0025 246° West 148 170 10,100 200 Climbing Cleveland Center
Thu 06:52:24 PM 41.2250 -82.0519 248° West 148 170 10,100  Level Cleveland Center
Thu 06:53:24 PM 41.2078 -82.1039 246° West 158 182 10,100 50 Level Cleveland Center
Thu 06:54:24 PM 41.1883 -82.1558 244° Southwest 163 188 10,200  Climbing Cleveland Center
Thu 06:55:24 PM 41.1728 -82.2106 249° West 163 188 10,100 -50 Descending Cleveland Center
Thu 06:56:24 PM 41.1556 -82.2625 246° West 163 188 10,100  Level Cleveland Center
Thu 06:57:24 PM 41.1381 -82.3144 246° West 158 182 10,100  Level Cleveland Center
Thu 06:58:24 PM 41.1225 -82.3664 248° West 153 176 10,100 -50 Level Cleveland Center
Thu 06:59:24 PM 41.1050 -82.4239 248° West 153 176 10,000 -50 Descending Cleveland Center
Thu 07:00:24 PM 41.0875 -82.4814 248° West 158 182 10,000  Level Cleveland Center
Thu 07:01:24 PM 41.0719 -82.5331 248° West 158 182 10,000  Level Cleveland Center
Thu 07:02:24 PM 41.0544 -82.5850 246° West 158 182 10,000  Level Cleveland Center
Thu 07:03:24 PM 41.0367 -82.6394 247° West 158 182 10,000  Level Cleveland Center
Thu 07:04:24 PM 41.0211 -82.6914 248° West 158 182 10,000  Level Cleveland Center
Thu 07:05:24 PM 41.0033 -82.7458 247° West 158 182 10,000  Level Cleveland Center
Thu 07:06:24 PM 40.9881 -82.7947 248° West 153 176 10,000  Level Cleveland Center
Thu 07:07:24 PM 40.9703 -82.8464 246° West 153 176 10,000  Level Cleveland Center
Thu 07:08:24 PM 40.9544 -82.9008 249° West 153 176 10,000  Level Cleveland Center
Thu 07:09:24 PM 40.9389 -82.9469 246° West 153 176 10,000  Level Cleveland Center
Thu 07:10:24 PM 40.9214 -82.9986 246° West 153 176 10,000  Level Cleveland Center
Thu 07:11:24 PM 40.9075 -83.0531 251° West 153 176 10,000  Level Cleveland Center
Thu 07:12:24 PM 40.8875 -83.1072 244° Southwest 153 176 10,000  Level Cleveland Center
Thu 07:13:24 PM 40.8739 -83.1589 251° West 158 182 10,000  Level Cleveland Center
Thu 07:14:24 PM 40.8539 -83.2186 246° West 158 182 10,000  Level Cleveland Center
Thu 07:15:24 PM 40.8358 -83.2728 246° West 158 182 10,000 28 Level Cleveland Center
Thu 07:17:55 PM 40.7939 -83.3986 246° West 156 180 10,100 28 Climbing Indianapolis Center
Thu 07:18:57 PM 40.7767 -83.4544 248° West 159 183 10,100  Level Indianapolis Center
Thu 07:19:58 PM 40.7597 -83.5086 248° West 159 183 10,100  Level Indianapolis Center
Thu 07:21:00 PM 40.7428 -83.5636 248° West 161 185 10,100  Level Indianapolis Center
Thu 07:22:02 PM 40.7244 -83.6186 246° West 162 186 10,100  Level Indianapolis Center
Thu 07:23:04 PM 40.7050 -83.6825 248° West 160 184 10,100  Level Indianapolis Center
Thu 07:24:06 PM 40.6875 -83.7375 247° West 161 185 10,100  Level Indianapolis Center
Thu 07:25:08 PM 40.6686 -83.7908 245° Southwest 160 184 10,100  Level Indianapolis Center
Thu 07:25:30 PM 40.6606 -83.8161 247° West 161 185 10,100  Level Indianapolis Center
Thu 07:26:10 PM 40.6503 -83.8456 245° Southwest 161 185 10,100  Level Indianapolis Center
Thu 07:26:31 PM 40.6419 -83.8689 245° Southwest 160 184 10,100  Level Indianapolis Center
Thu 07:27:11 PM 40.6308 -83.8992 244° Southwest 162 186 10,100  Level Indianapolis Center
Thu 07:27:31 PM 40.6211 -83.9211 240° Southwest 161 185 10,100 -97 Level Indianapolis Center
Thu 07:28:13 PM 40.6089 -83.9497 241° Southwest 160 184 10,000 -58 Descending Indianapolis Center
Thu 07:29:15 PM 40.5864 -84.0011 240° Southwest 160 184 10,000  Level Indianapolis Center
Thu 07:29:45 PM 40.5708 -84.0328 237° Southwest 158 182 10,000  Level Indianapolis Center
Thu 07:30:17 PM 40.5625 -84.0506 238° Southwest 159 183 10,000  Level Indianapolis Center
Thu 07:31:18 PM 40.5381 -84.1106 242° Southwest 158 182 10,000  Level Indianapolis Center
Thu 07:32:20 PM 40.5150 -84.1608 239° Southwest 160 184 10,000  Level Indianapolis Center
Thu 07:33:22 PM 40.4931 -84.2111 240° Southwest 159 183 10,000  Level Indianapolis Center
Thu 07:34:37 PM 40.4642 -84.2739 239° Southwest 159 183 10,000  Level Indianapolis Center
Thu 07:35:25 PM 40.4478 -84.3117 240° Southwest 158 182 10,000  Level Indianapolis Center
Thu 07:35:44 PM 40.4383 -84.3333 240° Southwest 159 183 10,000  Level Indianapolis Center
Thu 07:36:27 PM 40.4264 -84.3633 242° Southwest 158 182 10,000 98 Level Indianapolis Center
Thu 07:36:45 PM 40.4158 -84.3825 234° Southwest 158 182 10,100  Climbing Indianapolis Center
Thu 07:37:29 PM 40.4031 -84.4128 241° Southwest 158 182 10,000  Descending Indianapolis Center
Thu 07:37:46 PM 40.3950 -84.4317 241° Southwest 159 183 10,100 97 Climbing Indianapolis Center
Thu 07:38:31 PM 40.3803 -84.4650 240° Southwest 161 185 10,100  Level Indianapolis Center
Thu 07:38:47 PM 40.3719 -84.4833 239° Southwest 160 184 10,100  Level Indianapolis Center
Thu 07:39:32 PM 40.3583 -84.5161 241° Southwest 161 185 10,100  Level Indianapolis Center
Thu 07:40:34 PM 40.3328 -84.5747 240° Southwest 158 182 10,100  Level Indianapolis Center
Thu 07:41:36 PM 40.3092 -84.6253 239° Southwest 159 183 10,100  Level Indianapolis Center
Thu 07:42:37 PM 40.2869 -84.6764 240° Southwest 159 183 10,100  Level Indianapolis Center
Thu 07:43:39 PM 40.2639 -84.7261 239° Southwest 159 183 10,100  Level Indianapolis Center
Thu 07:44:41 PM 40.2414 -84.7767 240° Southwest 160 184 10,100  Level Indianapolis Center
Thu 07:45:42 PM 40.2203 -84.8269 241° Southwest 158 182 10,100  Level Indianapolis Center
Thu 07:46:44 PM 40.1992 -84.8767 241° Southwest 156 180 10,100  Level Indianapolis Center
Thu 07:47:46 PM 40.1775 -84.9244 239° Southwest 158 182 10,100  Level Indianapolis Center
Thu 07:48:43 PM 40.1522 -84.9831 241° Southwest 158 182 10,100  Level Indianapolis Center
Thu 07:49:44 PM 40.1314 -85.0319 241° Southwest 159 183 10,100 -39 Level Indianapolis Center
Thu 07:51:17 PM 40.1000 -85.1000 239° Southwest 160 184 10,000 -47 Descending Indianapolis TRACON
Thu 07:51:52 PM 40.0819 -85.1322 234° Southwest 160 184 10,000 62 Level Indianapolis Center
Thu 07:52:54 PM 40.0583 -85.1808 238° Southwest 159 183 10,100  Climbing Indianapolis Center
Thu 07:53:55 PM 40.0453 -85.2367 253° West 162 186 10,000 -390 Descending Indianapolis Center
Thu 07:54:57 PM 40.0336 -85.2958 256° West 167 192 9,300 -683 Descending Indianapolis Center
Thu 07:55:58 PM 40.0186 -85.3725 256° West 179 206 8,600 -927 Descending Indianapolis Center
Thu 07:57:00 PM 40.0056 -85.4414 256° West 193 222 7,400 -1,171 Descending Indianapolis Center
Thu 07:58:01 PM 40.0131 -85.5169 277° West 205 236 6,200 -1,171 Descending Indianapolis Center
Thu 07:59:03 PM 40.0161 -85.5917 273° West 207 238 5,000 -1,073 Descending Indianapolis Center
Thu 08:00:04 PM 40.0192 -85.6644 273° West 205 236 4,000 -488 Descending Indianapolis Center
Thu 08:01:06 PM 40.0172 -85.7283 268° West 190 219 4,000  Level Indianapolis Center
Thu 08:02:07 PM 39.9981 -85.7833 246° West 175 201 4,000 -49 Level Indianapolis Center
Thu 08:03:09 PM 39.9769 -85.8522 248° West 171 197 3,900  Descending Indianapolis Center
Thu 08:04:10 PM 39.9586 -85.9092 247° West 171 197 4,000 49 Climbing Indianapolis Center
Thu 08:05:12 PM 39.9389 -85.9689 247° West 170 196 4,000  Level Indianapolis Center

Login

Don't have an account? Register now (free) for customized features, flight alerts, and more!